Time;durP1;ratioP1;P1;durP2;ratioP2;P2;SDS_P1;SDS_P2;PMS_P1;PMS_P2;Temp;Humidity;BMP_temperature;BMP_pressure;BME280_temperature;BME280_humidity;BME280_pressure;Samples;Min_cycle;Max_cycle;Signal;HPM_P1;HPM_P2
2022/03/25 00:01:26;;;;;;;54.07;33.07;;;7.20;99.90;;;;;;5033600;28;20176;-65
2022/03/25 00:03:52;;;;;;;47.57;34.20;;;7.20;99.90;;;;;;5033351;28;20290;-66
2022/03/25 00:06:18;;;;;;;54.60;33.47;;;7.20;99.90;;;;;;5032859;28;20198;-66
2022/03/25 00:08:43;;;;;;;47.53;32.47;;;7.20;99.90;;;;;;5032951;28;20653;-66
2022/03/25 00:11:09;;;;;;;46.87;30.17;;;7.10;99.90;;;;;;5033076;28;20270;-66
2022/03/25 00:13:35;;;;;;;52.40;32.37;;;7.10;99.90;;;;;;5032954;28;20223;-65
2022/03/25 00:16:03;;;;;;;53.87;33.50;;;7.00;99.90;;;;;;5030931;28;20243;-65
2022/03/25 00:18:28;;;;;;;51.07;34.87;;;6.90;99.90;;;;;;5032745;28;20202;-66
2022/03/25 00:20:54;;;;;;;50.47;34.47;;;6.90;99.90;;;;;;5032447;28;20215;-66
2022/03/25 00:23:20;;;;;;;47.23;31.70;;;6.90;99.90;;;;;;5032725;28;20222;-65
2022/03/25 00:25:46;;;;;;;51.27;30.83;;;6.90;99.90;;;;;;5031951;28;20179;-68
2022/03/25 00:28:11;;;;;;;45.37;30.73;;;6.80;99.90;;;;;;5032839;28;20176;-65
2022/03/25 00:30:37;;;;;;;48.73;34.10;;;6.80;99.90;;;;;;5032312;28;20500;-65
2022/03/25 00:33:02;;;;;;;49.80;32.17;;;6.70;99.90;;;;;;5032446;28;20175;-66
2022/03/25 00:35:28;;;;;;;47.90;32.30;;;6.70;99.90;;;;;;5031542;28;20679;-66
2022/03/25 00:37:53;;;;;;;48.10;31.77;;;6.70;99.90;;;;;;5030684;28;20213;-65
2022/03/25 00:40:19;;;;;;;44.73;30.40;;;6.60;99.90;;;;;;5032160;28;20279;-66
2022/03/25 00:42:45;;;;;;;46.90;30.27;;;6.60;99.90;;;;;;5031882;28;20171;-65
2022/03/25 00:45:12;;;;;;;48.07;30.57;;;6.60;99.90;;;;;;5031302;28;20218;-66
2022/03/25 00:47:38;;;;;;;45.03;31.23;;;6.50;99.90;;;;;;5032083;28;20187;-66
2022/03/25 00:50:04;;;;;;;42.87;30.23;;;6.60;99.90;;;;;;5031805;28;20171;-66
2022/03/25 00:52:30;;;;;;;46.43;32.03;;;6.60;99.90;;;;;;5032068;28;20187;-64
2022/03/25 00:54:55;;;;;;;51.17;32.10;;;6.60;99.90;;;;;;5031273;28;20187;-66
2022/03/25 00:57:21;;;;;;;46.83;32.97;;;6.60;99.90;;;;;;5031786;28;20199;-65
2022/03/25 00:59:47;;;;;;;44.87;30.87;;;6.50;99.90;;;;;;5031670;28;20206;-66
2022/03/25 01:02:13;;;;;;;46.80;31.37;;;6.50;99.90;;;;;;5031942;28;20310;-66
2022/03/25 01:04:38;;;;;;;47.97;31.13;;;6.50;99.90;;;;;;5031003;28;20210;-68
2022/03/25 01:07:04;;;;;;;51.37;31.33;;;6.50;99.90;;;;;;5031559;28;20172;-64
2022/03/25 01:09:30;;;;;;;45.27;31.23;;;6.40;99.90;;;;;;5031670;28;20175;-66
2022/03/25 01:11:56;;;;;;;44.00;31.20;;;6.30;99.90;;;;;;5031487;28;20183;-66
2022/03/25 01:14:22;;;;;;;46.80;29.90;;;6.30;99.90;;;;;;5031362;28;20248;-66
2022/03/25 01:16:48;;;;;;;48.57;31.67;;;6.20;99.90;;;;;;5029820;28;20207;-65
2022/03/25 01:19:13;;;;;;;43.23;27.93;;;6.20;99.90;;;;;;5031280;28;20171;-65
2022/03/25 01:21:39;;;;;;;42.33;30.73;;;6.20;99.90;;;;;;5031413;28;20175;-66
2022/03/25 01:24:05;;;;;;;50.17;30.47;;;6.20;99.90;;;;;;5031330;28;20606;-65
2022/03/25 01:26:31;;;;;;;50.97;31.60;;;6.20;99.90;;;;;;5031176;28;20262;-66
2022/03/25 01:28:57;;;;;;;47.07;30.97;;;6.10;99.90;;;;;;5031159;28;20543;-65
2022/03/25 01:31:23;;;;;;;45.70;31.40;;;6.00;99.90;;;;;;5030340;28;20179;-64
2022/03/25 01:33:49;;;;;;;51.63;30.57;;;6.00;99.90;;;;;;5031220;28;20209;-65
2022/03/25 01:36:15;;;;;;;47.43;30.83;;;5.90;99.90;;;;;;5031219;28;20203;-64
2022/03/25 01:38:42;;;;;;;44.70;28.60;;;5.80;99.90;;;;;;5030812;28;20213;-64
2022/03/25 01:41:07;;;;;;;42.83;29.23;;;5.70;99.90;;;;;;5031530;28;20179;-66
2022/03/25 01:43:33;;;;;;;44.20;30.23;;;5.70;99.90;;;;;;5033475;28;20241;-65
2022/03/25 01:45:59;;;;;;;45.33;31.50;;;5.70;99.90;;;;;;5034591;28;20681;-65
2022/03/25 01:48:25;;;;;;;42.57;29.87;;;5.70;99.90;;;;;;5035337;28;20179;-66
2022/03/25 01:50:51;;;;;;;51.60;32.40;;;5.70;99.90;;;;;;5035325;28;20818;-65
2022/03/25 01:53:23;;;;;;;44.20;30.37;;;5.70;99.90;;;;;;5034874;28;20183;-66
2022/03/25 01:56:00;;;;;;;44.33;30.23;;;5.60;99.90;;;;;;5032884;28;20229;-66
2022/03/25 01:58:31;;;;;;;45.93;30.67;;;5.50;99.90;;;;;;5034167;28;20186;-65
2022/03/25 02:00:58;;;;;;;48.10;31.37;;;5.50;99.90;;;;;;5035003;28;20168;-65
2022/03/25 02:03:24;;;;;;;41.77;30.57;;;5.50;99.90;;;;;;5034820;28;20215;-65
2022/03/25 02:05:50;;;;;;;44.20;29.87;;;5.50;99.90;;;;;;5033663;28;20202;-65
2022/03/25 02:08:16;;;;;;;45.20;30.23;;;5.40;99.90;;;;;;5034492;28;20203;-65
2022/03/25 02:10:42;;;;;;;47.77;31.37;;;5.30;99.90;;;;;;5035061;28;20643;-65
2022/03/25 02:13:09;;;;;;;46.40;30.93;;;5.30;99.90;;;;;;5034462;28;20187;-65
2022/03/25 02:15:35;;;;;;;45.97;31.77;;;5.20;99.90;;;;;;5034586;28;20168;-66
2022/03/25 02:18:07;;;;;;;42.07;28.80;;;5.10;99.90;;;;;;5034367;28;20256;-65
2022/03/25 02:20:34;;;;;;;43.63;29.77;;;5.10;99.90;;;;;;5034440;28;20524;-66
2022/03/25 02:23:00;;;;;;;49.30;31.60;;;5.10;99.90;;;;;;5033351;28;20175;-68
2022/03/25 02:25:26;;;;;;;44.40;30.63;;;5.00;99.90;;;;;;5033845;28;20568;-65
2022/03/25 02:27:53;;;;;;;49.97;32.63;;;5.00;99.90;;;;;;5034228;28;20176;-65
2022/03/25 02:30:20;;;;;;;45.17;30.97;;;5.00;99.90;;;;;;5034590;28;20163;-66
2022/03/25 02:32:45;;;;;;;46.57;30.13;;;4.90;99.90;;;;;;5034213;28;20194;-66
2022/03/25 02:35:11;;;;;;;46.87;30.00;;;4.90;99.90;;;;;;5034085;28;20187;-66
2022/03/25 02:37:37;;;;;;;47.70;29.97;;;4.80;99.90;;;;;;5034148;28;20281;-64
2022/03/25 02:40:03;;;;;;;41.37;28.47;;;4.80;99.90;;;;;;5034370;28;20202;-66
2022/03/25 02:42:29;;;;;;;46.80;30.20;;;4.80;99.90;;;;;;5034225;28;20593;-64
2022/03/25 02:44:54;;;;;;;41.77;28.60;;;4.70;99.90;;;;;;5033378;28;20231;-65
2022/03/25 02:47:20;;;;;;;44.73;29.90;;;4.70;99.90;;;;;;5034081;28;20163;-66
2022/03/25 02:49:46;;;;;;;47.67;30.60;;;4.70;99.90;;;;;;5033821;28;20175;-65
2022/03/25 02:52:11;;;;;;;49.83;30.93;;;4.60;99.90;;;;;;5034163;28;20722;-66
2022/03/25 02:54:37;;;;;;;45.63;30.50;;;4.60;99.90;;;;;;5032487;28;20202;-65
2022/03/25 02:57:04;;;;;;;42.33;28.83;;;4.60;99.90;;;;;;5033687;28;20203;-64
2022/03/25 02:59:29;;;;;;;50.67;31.87;;;4.60;99.90;;;;;;5033755;28;20179;-64
2022/03/25 03:01:55;;;;;;;50.97;29.67;;;4.60;99.90;;;;;;5034151;28;20270;-64
2022/03/25 03:04:21;;;;;;;47.17;29.73;;;4.50;99.90;;;;;;5033515;28;20601;-68
2022/03/25 03:06:46;;;;;;;48.10;30.77;;;4.40;99.90;;;;;;5033379;28;20175;-66
2022/03/25 03:09:12;;;;;;;43.67;28.80;;;4.40;99.90;;;;;;5033506;28;20564;-66
2022/03/25 03:11:38;;;;;;;42.13;27.70;;;4.50;99.90;;;;;;5033764;28;20175;-66
2022/03/25 03:14:04;;;;;;;48.63;30.07;;;4.50;99.90;;;;;;5033453;28;20663;-66
2022/03/25 03:16:30;;;;;;;42.60;28.87;;;4.50;99.90;;;;;;5033574;28;20619;-66
2022/03/25 03:18:56;;;;;;;51.10;30.23;;;4.50;99.90;;;;;;5033328;28;20179;-66
2022/03/25 03:21:24;;;;;;;41.33;28.43;;;4.40;99.90;;;;;;5033519;28;20609;-66
2022/03/25 03:23:53;;;;;;;49.07;30.27;;;4.40;99.90;;;;;;5033184;28;20205;-66
2022/03/25 03:26:19;;;;;;;50.77;30.53;;;4.40;99.90;;;;;;5033146;28;20178;-66
2022/03/25 03:28:45;;;;;;;48.90;31.03;;;4.50;99.90;;;;;;5033182;28;20179;-66
2022/03/25 03:31:11;;;;;;;44.90;28.33;;;4.40;99.90;;;;;;5033675;28;20229;-66
2022/03/25 03:33:36;;;;;;;47.57;30.90;;;4.40;99.90;;;;;;5030416;28;20207;-66
2022/03/25 03:36:03;;;;;;;48.60;29.70;;;4.40;99.90;;;;;;5032048;28;20203;-65
2022/03/25 03:38:29;;;;;;;43.97;30.33;;;4.40;99.90;;;;;;5032847;28;20229;-66
2022/03/25 03:40:54;;;;;;;49.60;31.97;;;4.40;99.90;;;;;;5033065;28;20246;-66
2022/03/25 03:43:20;;;;;;;51.80;30.07;;;4.40;99.90;;;;;;5032948;28;20189;-65
2022/03/25 03:45:46;;;;;;;48.23;30.73;;;4.30;99.90;;;;;;5032575;28;20221;-66
2022/03/25 03:48:12;;;;;;;45.23;31.10;;;4.30;99.90;;;;;;5033147;28;20172;-66
2022/03/25 03:50:38;;;;;;;47.83;32.30;;;4.30;99.90;;;;;;5032632;28;20180;-66
2022/03/25 03:53:04;;;;;;;41.77;29.63;;;4.20;99.90;;;;;;5032903;28;20164;-66
2022/03/25 03:55:30;;;;;;;46.60;28.97;;;4.20;99.90;;;;;;5032510;28;20180;-66
2022/03/25 03:57:56;;;;;;;43.47;28.60;;;4.10;99.90;;;;;;5032711;28;20207;-65
2022/03/25 04:00:24;;;;;;;46.00;30.87;;;4.10;99.90;;;;;;5032761;28;20218;-65
2022/03/25 04:02:50;;;;;;;46.63;30.23;;;4.00;99.90;;;;;;5032898;28;20259;-65
2022/03/25 04:05:16;;;;;;;47.30;29.30;;;4.10;99.90;;;;;;5055706;23;20329;-66
2022/03/25 04:07:44;;;;;;;41.73;29.53;;;4.00;99.90;;;;;;5032921;28;20178;-66
2022/03/25 04:10:11;;;;;;;46.63;31.47;;;4.10;99.90;;;;;;5032584;28;20195;-66
2022/03/25 04:12:37;;;;;;;44.83;29.83;;;4.00;99.90;;;;;;5032838;28;20202;-66
2022/03/25 04:15:05;;;;;;;46.47;31.73;;;3.90;99.90;;;;;;5032138;28;20573;-66
2022/03/25 04:17:30;;;;;;;48.93;30.93;;;4.00;99.90;;;;;;5031359;28;20302;-66
2022/03/25 04:19:56;;;;;;;49.47;31.97;;;3.90;99.90;;;;;;5031098;28;20298;-66
2022/03/25 04:22:21;;;;;;;46.67;32.23;;;3.90;99.90;;;;;;5032655;28;20229;-65
2022/03/25 04:24:47;;;;;;;47.10;31.43;;;3.90;99.90;;;;;;5032331;28;20271;-66
2022/03/25 04:27:13;;;;;;;42.77;29.30;;;3.90;99.90;;;;;;5032484;28;20417;-67
2022/03/25 04:29:38;;;;;;;52.40;30.33;;;3.90;99.90;;;;;;5032305;28;20184;-65
2022/03/25 04:32:05;;;;;;;52.00;32.33;;;3.90;99.90;;;;;;5031452;28;20183;-66
2022/03/25 04:34:31;;;;;;;53.97;34.87;;;3.90;99.90;;;;;;5031866;28;20301;-65
2022/03/25 04:36:56;;;;;;;47.57;30.73;;;3.90;99.90;;;;;;5032116;28;20301;-66
2022/03/25 04:39:22;;;;;;;50.13;31.73;;;3.90;99.90;;;;;;5032241;28;20183;-65
2022/03/25 04:41:48;;;;;;;50.13;33.33;;;3.90;99.90;;;;;;5032112;28;20194;-65
2022/03/25 04:44:13;;;;;;;45.57;31.80;;;3.90;99.90;;;;;;5031890;28;20202;-66
2022/03/25 04:46:39;;;;;;;46.27;31.13;;;3.90;99.90;;;;;;5031716;28;20554;-64
2022/03/25 04:49:07;;;;;;;61.13;33.43;;;3.90;99.90;;;;;;5031818;28;20191;-64
2022/03/25 04:51:33;;;;;;;48.80;34.30;;;3.80;99.90;;;;;;5031876;28;20541;-64
2022/03/25 04:53:58;;;;;;;120.77;59.90;;;3.90;99.90;;;;;;5031541;28;20282;-65
2022/03/25 04:56:24;;;;;;;70.27;40.37;;;3.90;99.90;;;;;;5031364;28;20241;-65
2022/03/25 04:58:49;;;;;;;146.73;66.53;;;3.90;99.90;;;;;;5031648;28;20651;-64
2022/03/25 05:01:15;;;;;;;168.43;75.87;;;3.90;99.90;;;;;;5031600;28;20180;-66
2022/03/25 05:03:41;;;;;;;142.23;64.27;;;3.90;99.90;;;;;;5031446;28;20176;-65
2022/03/25 05:06:06;;;;;;;61.30;38.37;;;3.90;99.90;;;;;;5031462;28;20614;-66
2022/03/25 05:08:32;;;;;;;59.43;33.57;;;3.90;99.90;;;;;;5031830;28;20174;-66
2022/03/25 05:10:57;;;;;;;104.53;53.83;;;3.90;99.90;;;;;;5031281;28;20249;-65
2022/03/25 05:13:23;;;;;;;67.77;38.83;;;3.90;99.90;;;;;;5031737;28;20237;-66
2022/03/25 05:15:48;;;;;;;72.93;41.47;;;3.90;99.90;;;;;;5031375;28;20295;-65
2022/03/25 05:18:15;;;;;;;58.00;32.43;;;3.90;99.90;;;;;;5031354;28;20516;-66
2022/03/25 05:20:40;;;;;;;69.00;36.90;;;3.80;99.90;;;;;;5031446;28;20210;-66
2022/03/25 05:23:06;;;;;;;55.03;32.67;;;3.80;99.90;;;;;;5031576;28;20218;-64
2022/03/25 05:25:32;;;;;;;58.20;33.47;;;3.80;99.90;;;;;;5031139;28;20203;-64
2022/03/25 05:27:58;;;;;;;49.70;32.50;;;3.80;99.90;;;;;;5031849;28;20199;-65
2022/03/25 05:30:29;;;;;;;215.47;85.53;;;3.90;99.90;;;;;;5031410;28;20183;-66
2022/03/25 05:32:56;;;;;;;73.67;44.60;;;3.90;99.90;;;;;;5031355;28;20241;-65
2022/03/25 05:35:23;;;;;;;59.17;34.80;;;3.90;99.90;;;;;;5030891;28;20246;-65
2022/03/25 05:37:49;;;;;;;124.37;55.40;;;3.90;99.90;;;;;;5031309;28;20195;-65
2022/03/25 05:40:16;;;;;;;55.83;34.50;;;3.90;99.90;;;;;;5031351;28;20183;-64
2022/03/25 05:42:42;;;;;;;56.63;33.13;;;3.90;99.90;;;;;;5031317;28;20168;-65
2022/03/25 05:45:09;;;;;;;59.77;36.57;;;4.00;99.90;;;;;;5030741;28;20693;-66
2022/03/25 05:47:36;;;;;;;57.30;35.33;;;4.00;99.90;;;;;;5031365;28;20179;-65
2022/03/25 05:50:04;;;;;;;62.60;37.70;;;4.00;99.90;;;;;;5030967;28;20179;-65
2022/03/25 05:52:29;;;;;;;115.40;55.57;;;4.10;99.90;;;;;;5031308;28;20548;-66
2022/03/25 05:54:55;;;;;;;101.00;48.97;;;4.20;99.90;;;;;;5030909;28;20207;-66
2022/03/25 05:57:21;;;;;;;58.07;35.30;;;4.30;99.90;;;;;;5031248;28;20214;-66
2022/03/25 05:59:47;;;;;;;55.53;35.50;;;4.40;99.90;;;;;;5030924;28;20241;-66
2022/03/25 06:02:13;;;;;;;56.77;37.43;;;4.40;99.90;;;;;;5031430;28;20199;-67
2022/03/25 06:04:39;;;;;;;59.87;39.23;;;4.50;99.90;;;;;;5030555;28;20207;-66
2022/03/25 06:07:05;;;;;;;63.27;37.70;;;4.60;99.90;;;;;;5031353;28;20246;-66
2022/03/25 06:09:31;;;;;;;62.10;39.50;;;4.60;99.90;;;;;;5030930;28;20671;-66
2022/03/25 06:11:57;;;;;;;56.07;34.03;;;4.70;99.90;;;;;;5031174;28;20176;-66
2022/03/25 06:14:24;;;;;;;52.53;33.33;;;4.80;99.90;;;;;;5029544;28;20292;-66
2022/03/25 06:16:50;;;;;;;57.70;34.93;;;4.80;99.90;;;;;;5030740;28;20227;-66
2022/03/25 06:19:17;;;;;;;55.63;34.47;;;4.90;99.90;;;;;;5030917;28;20222;-66
2022/03/25 06:21:43;;;;;;;54.87;34.27;;;5.00;99.90;;;;;;5029752;28;20186;-66
2022/03/25 06:24:08;;;;;;;54.50;34.50;;;5.10;99.90;;;;;;5030801;28;20223;-65
2022/03/25 06:26:34;;;;;;;47.83;33.13;;;5.10;99.90;;;;;;5030727;28;20180;-66
2022/03/25 06:29:00;;;;;;;55.73;34.13;;;5.20;99.90;;;;;;5031997;28;20190;-66
2022/03/25 06:31:25;;;;;;;44.27;30.83;;;5.30;99.90;;;;;;5034627;28;20182;-66
2022/03/25 06:33:51;;;;;;;47.90;30.30;;;5.30;99.90;;;;;;5042494;28;20579;-65
2022/03/25 06:36:17;;;;;;;51.53;32.43;;;5.50;99.90;;;;;;5048307;28;20729;-64
2022/03/25 06:38:43;;;;;;;50.77;31.83;;;5.60;99.90;;;;;;5048455;28;20187;-65
2022/03/25 06:41:09;;;;;;;47.27;31.90;;;5.70;99.90;;;;;;5041043;28;20175;-64
2022/03/25 06:43:35;;;;;;;51.47;33.17;;;5.80;99.90;;;;;;5039067;28;20647;-65
2022/03/25 06:46:01;;;;;;;44.73;29.53;;;5.90;99.90;;;;;;5037166;28;20183;-65
2022/03/25 06:48:27;;;;;;;52.03;30.93;;;6.00;99.90;;;;;;5035307;28;20183;-64
2022/03/25 06:50:53;;;;;;;48.27;32.67;;;6.20;99.90;;;;;;5034319;28;20218;-64
2022/03/25 06:53:19;;;;;;;46.80;29.30;;;6.50;99.90;;;;;;5034197;28;20175;-64
2022/03/25 06:55:45;;;;;;;42.63;29.00;;;6.80;99.90;;;;;;5033892;28;20199;-65
2022/03/25 06:58:11;;;;;;;43.43;29.70;;;7.30;99.90;;;;;;5034152;28;20256;-66
2022/03/25 07:00:37;;;;;;;43.93;28.83;;;7.80;99.90;;;;;;5034241;28;20816;-66
2022/03/25 07:03:05;;;;;;;45.57;28.83;;;8.30;99.90;;;;;;5033827;28;20179;-66
2022/03/25 07:05:31;;;;;;;46.63;31.33;;;8.80;99.90;;;;;;5013873;28;20226;-65
2022/03/25 07:07:58;;;;;;;52.10;32.40;;;9.40;99.90;;;;;;5014114;28;20176;-66
2022/03/25 07:10:26;;;;;;;45.73;30.17;;;9.80;99.90;;;;;;5032979;28;20781;-67
2022/03/25 07:12:53;;;;;;;47.30;32.63;;;10.40;99.90;;;;;;5033840;28;20176;-66
2022/03/25 07:15:20;;;;;;;49.27;33.87;;;11.00;99.90;;;;;;5031834;28;20670;-63
2022/03/25 07:17:46;;;;;;;42.90;30.83;;;11.50;99.90;;;;;;5033711;28;20320;-65
2022/03/25 07:20:15;;;;;;;57.33;30.37;;;11.90;99.90;;;;;;5033604;28;20275;-64
2022/03/25 07:22:46;;;;;;;46.07;29.50;;;12.20;99.90;;;;;;5033700;28;20552;-65
2022/03/25 07:25:14;;;;;;;50.70;31.60;;;12.60;99.90;;;;;;5033096;28;20293;-65
2022/03/25 07:27:40;;;;;;;44.73;29.93;;;12.90;99.90;;;;;;5033505;28;20175;-64
2022/03/25 07:30:07;;;;;;;47.20;31.83;;;13.10;99.90;;;;;;5028735;28;20212;-64
2022/03/25 07:32:32;;;;;;;49.47;31.50;;;13.40;99.90;;;;;;5013922;28;20183;-64
2022/03/25 07:34:58;;;;;;;48.10;30.53;;;13.70;99.90;;;;;;5027129;28;20207;-65
2022/03/25 07:37:24;;;;;;;41.57;30.90;;;13.90;99.90;;;;;;5032322;28;20407;-65
2022/03/25 07:39:50;;;;;;;47.20;32.47;;;14.10;99.90;;;;;;5032177;28;20214;-63
2022/03/25 07:42:15;;;;;;;45.23;31.97;;;14.50;99.90;;;;;;5033021;28;20190;-64
2022/03/25 07:44:41;;;;;;;47.87;32.13;;;14.60;99.90;;;;;;5032401;28;20573;-64
2022/03/25 07:47:08;;;;;;;47.63;30.97;;;14.70;99.90;;;;;;5032967;28;20542;-64
2022/03/25 07:49:34;;;;;;;49.13;31.80;;;14.80;99.90;;;;;;5032604;28;20192;-66
2022/03/25 07:52:00;;;;;;;45.37;32.67;;;14.80;99.90;;;;;;5032928;28;20191;-64
2022/03/25 07:54:27;;;;;;;47.97;33.43;;;15.00;99.90;;;;;;5032480;28;20198;-65
2022/03/25 07:56:55;;;;;;;43.03;32.33;;;15.20;99.90;;;;;;5032579;28;20707;-64
2022/03/25 07:59:21;;;;;;;46.70;32.50;;;15.50;99.90;;;;;;5032915;28;20172;-65
2022/03/25 08:01:47;;;;;;;46.53;31.97;;;15.70;99.90;;;;;;5034018;28;20252;-64
2022/03/25 08:04:13;;;;;;;50.13;33.07;;;16.00;99.90;;;;;;5032559;28;20671;-66
2022/03/25 08:06:39;;;;;;;43.83;31.47;;;16.40;99.90;;;;;;5032393;28;20183;-66
2022/03/25 08:09:04;;;;;;;48.17;33.03;;;16.50;99.90;;;;;;5032983;28;20202;-65
2022/03/25 08:11:30;;;;;;;42.80;32.47;;;16.80;99.90;;;;;;5032642;28;20564;-65
2022/03/25 08:13:56;;;;;;;48.90;33.50;;;17.10;99.90;;;;;;5032170;28;20696;-65
2022/03/25 08:16:22;;;;;;;46.33;33.83;;;16.80;99.90;;;;;;5032020;28;20200;-64
2022/03/25 08:18:48;;;;;;;44.95;34.70;;;16.70;99.90;;;;;;5032652;28;20190;-65
2022/03/25 08:21:14;;;;;;;40.67;31.67;;;16.90;99.90;;;;;;5032738;28;20620;-65
2022/03/25 08:29:09;;;;;;;45.42;33.20;;;18.00;99.90;;;;;;5032172;28;20249;-66
2022/03/25 08:31:35;;;;;;;49.15;33.92;;;18.50;99.90;;;;;;5030493;28;20223;-66
2022/03/25 08:34:07;;;;;;;48.70;33.75;;;18.80;99.90;;;;;;5031607;28;20226;-64
2022/03/25 08:36:33;;;;;;;50.80;37.13;;;18.80;99.90;;;;;;5031461;28;20253;-65
2022/03/25 08:38:59;;;;;;;45.00;33.08;;;19.00;99.90;;;;;;5031880;28;20164;-64
2022/03/25 08:41:24;;;;;;;48.63;34.78;;;19.00;99.90;;;;;;5031546;28;20624;-66
2022/03/25 08:43:51;;;;;;;45.83;32.95;;;19.30;99.90;;;;;;5031700;28;20269;-65
2022/03/25 08:46:20;;;;;;;42.78;33.00;;;19.80;99.40;;;;;;5030329;28;20245;-66
2022/03/25 08:48:46;;;;;;;45.45;33.00;;;20.30;99.20;;;;;;5031729;28;20180;-64
2022/03/25 08:51:12;;;;;;;43.88;33.95;;;20.70;97.40;;;;;;5031626;28;20209;-65
2022/03/25 08:53:38;;;;;;;40.35;32.50;;;20.60;96.00;;;;;;5030823;28;20168;-64
2022/03/25 08:56:04;;;;;;;42.28;32.38;;;20.60;96.60;;;;;;5030959;28;20233;-65
2022/03/25 08:58:29;;;;;;;40.03;31.70;;;20.70;96.70;;;;;;5031822;28;20172;-64
2022/03/25 09:00:55;;;;;;;43.20;32.95;;;20.90;95.80;;;;;;5030597;28;20179;-64
2022/03/25 09:03:21;;;;;;;42.70;33.22;;;20.90;94.70;;;;;;5031634;28;20589;-64
2022/03/25 09:05:47;;;;;;;40.80;32.53;;;20.90;93.40;;;;;;5030727;28;20203;-65
2022/03/25 09:08:13;;;;;;;47.20;33.25;;;21.00;92.30;;;;;;5031699;28;20183;-65
2022/03/25 09:10:38;;;;;;;47.92;33.67;;;20.70;92.10;;;;;;5031297;28;20179;-64
2022/03/25 09:13:04;;;;;;;43.90;32.75;;;20.50;94.00;;;;;;5031090;28;20175;-63
2022/03/25 09:15:30;;;;;;;48.78;32.35;;;20.80;94.30;;;;;;5031261;28;20203;-65
2022/03/25 09:17:56;;;;;;;44.08;32.97;;;21.10;94.90;;;;;;5029660;28;20237;-65
2022/03/25 09:20:22;;;;;;;47.65;32.20;;;21.70;94.90;;;;;;5031559;28;20167;-64
2022/03/25 09:22:47;;;;;;;45.95;31.48;;;21.90;93.00;;;;;;5031266;28;20626;-65
2022/03/25 09:25:13;;;;;;;43.03;32.63;;;21.70;92.70;;;;;;5030883;28;20223;-65
2022/03/25 09:27:40;;;;;;;46.08;32.58;;;21.50;92.70;;;;;;5031195;28;20179;-65
2022/03/25 09:30:09;;;;;;;43.17;32.30;;;21.40;92.50;;;;;;5031573;28;20545;-64
2022/03/25 09:32:34;;;;;;;47.70;33.75;;;21.40;93.60;;;;;;5030599;28;20167;-65
2022/03/25 09:35:09;;;;;;;39.70;29.92;;;21.70;93.80;;;;;;5030105;28;20260;-64
2022/03/25 09:37:40;;;;;;;39.00;30.02;;;22.00;92.80;;;;;;5031073;28;20198;-64
2022/03/25 09:40:13;;;;;;;39.08;29.05;;;22.40;90.30;;;;;;5030824;28;20181;-64
2022/03/25 09:42:39;;;;;;;39.35;30.15;;;22.70;92.70;;;;;;5031419;28;20172;-65
2022/03/25 09:45:08;;;;;;;38.30;29.05;;;23.20;92.00;;;;;;5030714;28;20613;-66
2022/03/25 09:47:34;;;;;;;39.95;29.77;;;23.30;88.40;;;;;;5031044;28;20175;-66
2022/03/25 09:50:00;;;;;;;36.20;28.08;;;23.00;87.50;;;;;;5030565;28;20186;-66
2022/03/25 09:52:29;;;;;;;40.55;29.52;;;23.00;88.60;;;;;;5031192;28;20167;-65
2022/03/25 09:54:55;;;;;;;39.15;30.00;;;22.80;84.30;;;;;;5030222;28;20695;-65
2022/03/25 09:57:20;;;;;;;36.53;26.02;;;22.70;84.60;;;;;;5031068;28;20215;-65
2022/03/25 09:59:46;;;;;;;34.90;25.45;;;22.70;81.40;;;;;;5030629;28;20191;-64
2022/03/25 10:02:11;;;;;;;38.88;26.33;;;22.70;77.70;;;;;;5032578;28;20168;-65
2022/03/25 10:04:42;;;;;;;37.72;25.77;;;22.40;78.10;;;;;;5041802;28;20298;-65
2022/03/25 10:07:20;;;;;;;33.47;24.67;;;22.20;79.70;;;;;;5044182;28;20662;-64
2022/03/25 10:09:48;;;;;;;34.08;25.85;;;22.10;78.20;;;;;;5039822;28;20183;-63
2022/03/25 10:12:25;;;;;;;35.13;26.42;;;21.80;81.60;;;;;;5034833;28;20194;-64
2022/03/25 10:15:09;;;;;;;37.72;28.27;;;22.00;81.20;;;;;;5029681;28;20207;-65
2022/03/25 10:17:46;;;;;;;37.40;26.98;;;22.20;79.60;;;;;;5018987;28;20717;-64
2022/03/25 10:20:13;;;;;;;33.40;25.92;;;22.40;80.50;;;;;;5014985;28;20649;-64
2022/03/25 10:22:39;;;;;;;32.70;23.77;;;22.50;79.90;;;;;;5023890;28;20182;-65
2022/03/25 10:25:09;;;;;;;32.00;22.85;;;22.70;80.70;;;;;;5033547;28;20274;-64
2022/03/25 10:27:35;;;;;;;28.52;23.05;;;22.60;76.60;;;;;;5034364;28;20230;-65
2022/03/25 10:30:05;;;;;;;30.13;21.60;;;22.80;77.70;;;;;;5034710;28;20186;-65
2022/03/25 10:32:31;;;;;;;24.15;19.60;;;22.80;76.20;;;;;;5034639;28;20194;-62
2022/03/25 10:35:01;;;;;;;26.45;20.83;;;22.60;72.70;;;;;;5034073;28;20195;-63
2022/03/25 10:37:28;;;;;;;26.70;20.48;;;22.30;71.90;;;;;;5033228;28;20199;-64
2022/03/25 10:39:54;;;;;;;24.50;18.67;;;22.10;71.00;;;;;;5033911;28;20168;-63
2022/03/25 10:42:20;;;;;;;20.08;13.70;;;22.00;74.10;;;;;;5033911;28;20176;-63
2022/03/25 10:44:46;;;;;;;16.17;11.70;;;22.10;69.50;;;;;;5033750;28;20568;-64
2022/03/25 10:47:24;;;;;;;15.70;10.40;;;21.70;65.60;;;;;;5033827;28;20262;-64
2022/03/25 10:49:51;;;;;;;13.38;10.80;;;21.00;62.20;;;;;;5033811;28;20279;-65
2022/03/25 10:52:25;;;;;;;17.90;11.38;;;20.60;65.50;;;;;;5034164;28;20214;-64
2022/03/25 10:55:11;;;;;;;15.40;12.45;;;20.60;64.60;;;;;;5033761;28;20202;-66
2022/03/25 10:57:48;;;;;;;18.42;12.48;;;20.80;63.20;;;;;;5033797;28;20211;-64
2022/03/25 11:00:14;;;;;;;20.70;12.90;;;21.10;64.70;;;;;;5034089;28;20249;-64
2022/03/25 11:02:41;;;;;;;15.95;10.25;;;21.20;64.50;;;;;;5034657;28;20179;-64
2022/03/25 11:05:09;;;;;;;16.00;10.73;;;21.00;63.50;;;;;;5033717;28;20203;-65
2022/03/25 11:07:36;;;;;;;16.20;11.68;;;20.90;62.10;;;;;;5034031;28;20175;-64
2022/03/25 11:10:02;;;;;;;13.75;10.18;;;20.90;61.90;;;;;;5033813;28;20186;-64
2022/03/25 11:12:30;;;;;;;14.75;11.18;;;20.90;64.00;;;;;;5033553;28;20270;-65
2022/03/25 11:14:58;;;;;;;17.17;10.98;;;21.00;65.80;;;;;;5032219;28;20218;-64
2022/03/25 11:17:31;;;;;;;14.63;11.15;;;21.30;62.40;;;;;;5033386;28;20485;-64
2022/03/25 11:19:59;;;;;;;16.80;11.55;;;21.20;60.70;;;;;;5032575;28;20237;-66
2022/03/25 11:22:25;;;;;;;23.38;12.40;;;21.10;63.40;;;;;;5033376;28;20171;-65
2022/03/25 11:24:55;;;;;;;19.45;10.93;;;21.10;62.00;;;;;;5033033;28;20248;-66
2022/03/25 11:27:33;;;;;;;13.80;10.57;;;20.80;58.10;;;;;;5033411;28;20183;-66
2022/03/25 11:30:04;;;;;;;21.38;11.23;;;20.20;57.20;;;;;;5033190;28;20544;-66
2022/03/25 11:32:30;;;;;;;16.02;10.95;;;20.30;59.60;;;;;;5033700;28;20188;-64
2022/03/25 11:34:55;;;;;;;15.15;11.43;;;20.70;62.50;;;;;;5032578;28;20203;-65
2022/03/25 11:37:28;;;;;;;18.08;11.10;;;20.80;58.80;;;;;;5033203;28;20211;-65
2022/03/25 11:40:13;;;;;;;18.23;10.98;;;20.50;58.10;;;;;;5032670;28;20552;-64
2022/03/25 11:42:59;;;;;;;18.77;11.48;;;20.70;58.40;;;;;;5032657;28;20171;-65
2022/03/25 11:45:35;;;;;;;16.30;10.68;;;20.70;60.20;;;;;;5032568;28;20199;-65
2022/03/25 11:48:04;;;;;;;18.02;12.18;;;20.80;59.70;;;;;;5033093;28;20240;-66
2022/03/25 11:50:35;;;;;;;22.00;12.32;;;21.00;58.50;;;;;;5032629;28;20230;-65
2022/03/25 11:53:10;;;;;;;13.52;11.68;;;20.90;61.40;;;;;;5032989;28;20189;-65
2022/03/25 11:55:55;;;;;;;18.48;11.80;;;20.90;58.80;;;;;;5032375;28;20277;-64
2022/03/25 11:58:22;;;;;;;15.43;11.00;;;20.60;57.00;;;;;;5032634;28;20261;-66
2022/03/25 12:00:51;;;;;;;19.60;11.13;;;20.50;58.70;;;;;;5032065;28;20209;-64
2022/03/25 12:03:17;;;;;;;17.63;12.57;;;21.00;59.90;;;;;;5031866;28;20175;-63
2022/03/25 12:06:03;;;;;;;20.65;12.45;;;21.40;57.10;;;;;;5031460;28;20256;-66
2022/03/25 12:08:35;;;;;;;21.42;13.45;;;21.60;61.20;;;;;;5032736;28;20186;-66
2022/03/25 12:11:08;;;;;;;20.88;13.20;;;21.30;57.80;;;;;;5032747;28;20593;-66
2022/03/25 12:13:57;;;;;;;21.70;13.30;;;21.00;61.80;;;;;;5031473;28;20249;-64
2022/03/25 12:16:44;;;;;;;16.70;11.43;;;21.00;56.60;;;;;;5031842;28;20212;-65
2022/03/25 12:19:28;;;;;;;15.80;11.70;;;20.60;58.70;;;;;;5032794;28;20163;-66
2022/03/25 12:22:01;;;;;;;16.25;11.90;;;21.00;58.40;;;;;;5026695;28;20179;-66
2022/03/25 12:24:27;;;;;;;22.50;12.77;;;21.10;56.60;;;;;;5012544;28;20195;-66
2022/03/25 12:27:05;;;;;;;18.58;14.18;;;21.00;56.20;;;;;;5012534;28;20552;-65
2022/03/25 12:29:33;;;;;;;20.70;13.60;;;20.50;58.40;;;;;;5012242;28;20167;-65
2022/03/25 12:32:04;;;;;;;18.95;12.82;;;20.50;57.40;;;;;;5012986;28;20230;-63
2022/03/25 12:34:36;;;;;;;14.32;12.55;;;20.30;54.70;;;;;;5031927;28;20210;-64
2022/03/25 12:37:04;;;;;;;19.15;12.23;;;20.40;54.60;;;;;;5031682;28;20253;-64
2022/03/25 12:39:29;;;;;;;15.50;11.27;;;20.60;58.10;;;;;;5032081;28;20642;-64